createdAt,value
2023-02-18T00:00:29.075Z,58.92
2023-02-18T00:02:56.258Z,58.88
2023-02-18T00:05:23.097Z,59.00
2023-02-18T00:07:49.885Z,58.97
2023-02-18T00:10:16.943Z,58.81
2023-02-18T00:12:44.124Z,58.80
2023-02-18T00:15:10.894Z,58.97
2023-02-18T00:17:38.095Z,59.02
2023-02-18T00:20:07.058Z,59.06
2023-02-18T00:22:33.851Z,58.96
2023-02-18T00:25:00.650Z,58.73
2023-02-18T00:27:27.453Z,58.79
2023-02-18T00:29:54.292Z,59.11
2023-02-18T00:32:21.123Z,58.94
2023-02-18T00:34:48.053Z,59.35
2023-02-18T00:37:14.815Z,58.89
2023-02-18T00:39:41.620Z,58.73
2023-02-18T00:42:08.369Z,58.92
2023-02-18T00:44:35.150Z,59.03
2023-02-18T00:47:01.927Z,59.02
2023-02-18T00:49:28.735Z,58.93
2023-02-18T00:51:55.508Z,59.05
2023-02-18T00:54:22.268Z,59.25
2023-02-18T00:56:49.039Z,59.09
2023-02-18T00:59:15.897Z,58.87
2023-02-18T01:01:42.712Z,58.89
2023-02-18T01:04:09.589Z,58.99
2023-02-18T01:06:37.399Z,59.05
2023-02-18T01:09:05.567Z,59.06
2023-02-18T01:11:33.105Z,58.92
2023-02-18T01:13:59.880Z,59.07
2023-02-18T01:16:26.911Z,59.16
2023-02-18T01:18:53.744Z,59.07
2023-02-18T01:21:20.745Z,59.34
2023-02-18T01:23:47.590Z,58.93
2023-02-18T01:26:14.477Z,59.57
2023-02-18T01:28:41.669Z,59.20
2023-02-18T01:31:11.717Z,59.39
2023-02-18T01:33:38.675Z,59.29
2023-02-18T01:36:07.015Z,59.38
2023-02-18T01:38:34.309Z,59.24
2023-02-18T01:41:01.086Z,59.07
2023-02-18T01:43:27.854Z,59.00
2023-02-18T01:46:08.226Z,59.13
2023-02-18T01:48:48.022Z,59.32
2023-02-18T01:51:24.219Z,59.61
2023-02-18T01:54:07.820Z,59.36
2023-02-18T01:56:39.187Z,59.25
2023-02-18T01:59:15.781Z,59.05
2023-02-18T02:01:45.164Z,59.47
2023-02-18T02:04:12.292Z,59.31
2023-02-18T02:06:39.127Z,59.26
2023-02-18T02:09:09.554Z,59.34
2023-02-18T02:12:23.629Z,59.59
2023-02-18T02:15:36.952Z,59.65
2023-02-18T02:18:21.911Z,59.69
2023-02-18T02:21:42.200Z,59.70
2023-02-18T02:24:39.473Z,59.78
2023-02-18T02:27:29.575Z,59.68
2023-02-18T02:30:31.195Z,59.66
2023-02-18T02:33:20.519Z,59.90
2023-02-18T02:36:01.154Z,59.73
2023-02-18T02:38:55.445Z,59.51
2023-02-18T02:41:52.922Z,60.09
2023-02-18T02:44:51.916Z,59.94
2023-02-18T02:47:28.606Z,59.79
2023-02-18T02:50:09.849Z,59.85
2023-02-18T02:52:52.217Z,59.47
2023-02-18T02:55:19.241Z,59.63
2023-02-18T02:57:51.758Z,59.84
2023-02-18T03:00:23.972Z,59.65
2023-02-18T03:03:32.256Z,59.71
2023-02-18T03:06:06.710Z,59.90
2023-02-18T03:08:52.031Z,59.86
2023-02-18T03:11:19.258Z,59.78
2023-02-18T03:14:18.460Z,59.42
2023-02-18T03:17:00.097Z,59.57
2023-02-18T03:19:47.570Z,59.47
2023-02-18T03:22:25.964Z,59.53
2023-02-18T03:24:56.674Z,59.44
2023-02-18T03:27:26.259Z,59.78
2023-02-18T03:30:08.323Z,59.68
2023-02-18T03:32:36.137Z,59.78
2023-02-18T03:35:10.206Z,59.52
2023-02-18T03:37:44.864Z,59.91
2023-02-18T03:40:12.201Z,59.63
2023-02-18T03:42:38.996Z,59.80
2023-02-18T03:45:06.066Z,59.89
2023-02-18T03:47:33.160Z,59.74
2023-02-18T03:49:59.909Z,59.91
2023-02-18T03:52:26.669Z,59.87
2023-02-18T03:54:53.437Z,59.76
2023-02-18T03:57:20.203Z,59.97
2023-02-18T03:59:46.980Z,59.88
2023-02-18T04:02:13.747Z,59.94
2023-02-18T04:04:40.537Z,60.07
2023-02-18T04:07:07.426Z,60.27
2023-02-18T04:09:34.193Z,60.18
2023-02-18T04:12:00.980Z,60.42
2023-02-18T04:14:27.767Z,60.63
2023-02-18T04:16:54.612Z,60.78
2023-02-18T04:19:21.428Z,61.08
2023-02-18T04:21:48.239Z,61.02
2023-02-18T04:24:15.024Z,61.21
2023-02-18T04:26:41.871Z,61.38
2023-02-18T04:29:08.683Z,61.48
2023-02-18T04:31:35.579Z,61.62
2023-02-18T04:34:02.436Z,61.77
2023-02-18T04:36:29.276Z,61.80
2023-02-18T04:38:56.128Z,62.13
2023-02-18T04:41:22.917Z,62.27
2023-02-18T04:43:49.738Z,62.37
2023-02-18T04:46:16.607Z,62.39
2023-02-18T04:48:43.455Z,62.85
2023-02-18T04:51:10.291Z,62.83
2023-02-18T04:53:37.055Z,63.27
2023-02-18T04:56:04.166Z,63.19
2023-02-18T04:58:30.949Z,63.55
2023-02-18T05:01:03.054Z,63.55
2023-02-18T05:03:30.387Z,63.64
2023-02-18T05:05:57.347Z,63.74
2023-02-18T05:08:24.136Z,63.63
2023-02-18T05:10:50.981Z,63.82
2023-02-18T05:13:18.038Z,64.30
2023-02-18T05:15:44.824Z,64.30
2023-02-18T05:18:11.636Z,64.42
2023-02-18T05:20:38.408Z,64.19
2023-02-18T05:23:05.207Z,64.33
2023-02-18T05:25:32.130Z,64.64
2023-02-18T05:27:58.889Z,64.46
2023-02-18T05:30:25.684Z,64.63
2023-02-18T05:32:52.508Z,64.68
2023-02-18T05:35:19.277Z,64.86
2023-02-18T05:37:46.055Z,64.98
2023-02-18T05:40:12.903Z,65.13
2023-02-18T05:42:39.694Z,65.21
2023-02-18T05:45:07.646Z,65.18
2023-02-18T05:47:34.437Z,65.47
2023-02-18T05:50:01.222Z,65.27
2023-02-18T05:52:28.122Z,65.55
2023-02-18T05:54:54.984Z,65.36
2023-02-18T05:57:21.765Z,65.46
2023-02-18T05:59:48.538Z,65.55
2023-02-18T06:02:15.334Z,65.60
2023-02-18T06:04:42.118Z,65.69
2023-02-18T06:07:08.907Z,65.47
2023-02-18T06:09:35.713Z,65.54
2023-02-18T06:12:02.513Z,65.82
2023-02-18T06:14:29.288Z,65.75
2023-02-18T06:16:56.065Z,65.56
2023-02-18T06:19:23.229Z,65.54
2023-02-18T06:21:50.039Z,65.51
2023-02-18T06:24:16.924Z,65.63
2023-02-18T06:26:43.683Z,65.71
2023-02-18T06:29:10.473Z,65.87
2023-02-18T06:31:37.351Z,65.88
2023-02-18T06:34:04.168Z,65.66
2023-02-18T06:36:31.043Z,65.79
2023-02-18T06:38:59.206Z,65.87
2023-02-18T06:41:25.959Z,65.80
2023-02-18T06:43:52.736Z,65.82
2023-02-18T06:46:19.565Z,65.79
2023-02-18T06:48:46.463Z,65.73
2023-02-18T06:51:13.231Z,65.97
2023-02-18T06:53:40.039Z,65.81
2023-02-18T06:56:07.214Z,65.94
2023-02-18T06:58:34.198Z,66.26
2023-02-18T07:01:01.000Z,66.10
2023-02-18T07:03:28.132Z,66.25
2023-02-18T07:05:56.216Z,66.26
2023-02-18T07:08:23.149Z,66.00
2023-02-18T07:10:49.997Z,66.04
2023-02-18T07:13:16.809Z,66.28
2023-02-18T07:15:43.572Z,66.31
2023-02-18T07:18:10.463Z,66.24
2023-02-18T07:20:37.297Z,66.27
2023-02-18T07:23:04.156Z,66.51
2023-02-18T07:25:31.020Z,66.30
2023-02-18T07:27:57.793Z,66.59
2023-02-18T07:30:24.748Z,66.54
2023-02-18T07:32:51.568Z,66.55
2023-02-18T07:35:18.399Z,66.53
2023-02-18T07:37:50.290Z,66.69
2023-02-18T07:40:22.045Z,66.40
2023-02-18T07:42:49.479Z,66.94
2023-02-18T07:45:16.279Z,66.84
2023-02-18T07:47:47.887Z,66.96
2023-02-18T07:50:14.746Z,67.09
2023-02-18T07:52:41.722Z,67.30
2023-02-18T07:55:08.992Z,67.27
2023-02-18T07:57:55.763Z,67.54
2023-02-18T08:00:22.965Z,67.48
2023-02-18T08:02:49.777Z,67.65
2023-02-18T08:05:16.605Z,67.66
2023-02-18T08:07:43.569Z,67.82
2023-02-18T08:10:10.497Z,67.76
2023-02-18T08:12:37.369Z,68.32
2023-02-18T08:15:08.106Z,68.04
2023-02-18T08:17:35.227Z,68.19
2023-02-18T08:20:02.298Z,68.20
2023-02-18T08:22:29.204Z,68.57
2023-02-18T08:24:56.364Z,68.36
2023-02-18T08:27:24.195Z,68.58
2023-02-18T08:29:51.549Z,68.66
2023-02-18T08:32:18.335Z,69.00
2023-02-18T08:34:45.110Z,69.03
2023-02-18T08:37:11.956Z,69.18
2023-02-18T08:39:39.887Z,69.19
2023-02-18T08:42:07.048Z,69.66
2023-02-18T08:44:33.859Z,69.81
2023-02-18T08:47:00.656Z,69.85
2023-02-18T08:49:27.424Z,70.07
2023-02-18T08:51:55.098Z,70.17
2023-02-18T08:54:21.907Z,70.21
2023-02-18T08:56:48.700Z,70.42
2023-02-18T08:59:15.798Z,70.77
2023-02-18T09:01:42.713Z,70.77
2023-02-18T09:04:09.626Z,70.96
2023-02-18T09:06:40.235Z,71.40
2023-02-18T09:09:07.414Z,71.64
2023-02-18T09:11:34.655Z,71.76
2023-02-18T09:14:01.518Z,71.93
2023-02-18T09:16:29.888Z,72.02
2023-02-18T09:18:58.697Z,72.08
2023-02-18T09:21:26.774Z,72.20
2023-02-18T09:23:53.596Z,72.29
2023-02-18T09:26:23.217Z,72.22
2023-02-18T09:28:51.808Z,72.50
2023-02-18T09:31:27.223Z,72.26
2023-02-18T09:34:01.571Z,72.24
2023-02-18T09:36:28.986Z,72.31
2023-02-18T09:38:55.837Z,72.50
2023-02-18T09:41:53.645Z,72.14
2023-02-18T09:44:31.251Z,71.88
2023-02-18T09:47:02.628Z,72.37
2023-02-18T09:49:37.244Z,72.33
2023-02-18T09:52:29.872Z,72.31
2023-02-18T09:54:56.831Z,72.41
2023-02-18T09:57:35.375Z,72.31
2023-02-18T10:00:34.967Z,72.23
2023-02-18T10:03:23.960Z,71.99
2023-02-18T10:06:01.672Z,72.13
2023-02-18T10:08:43.394Z,72.09
2023-02-18T10:11:23.401Z,72.13
2023-02-18T10:13:57.516Z,71.91
2023-02-18T10:16:25.706Z,71.99
2023-02-18T10:18:57.927Z,71.94
2023-02-18T10:21:32.894Z,71.82
2023-02-18T10:24:12.729Z,71.81
2023-02-18T10:26:40.398Z,71.65
2023-02-18T10:29:18.088Z,71.92
2023-02-18T10:32:08.588Z,71.87
2023-02-18T10:34:54.017Z,71.79
2023-02-18T10:38:08.335Z,71.96
2023-02-18T10:41:03.448Z,71.82
2023-02-18T10:44:18.361Z,71.86
2023-02-18T10:47:11.830Z,71.60
2023-02-18T10:49:50.342Z,71.78
2023-02-18T10:52:19.069Z,71.92
2023-02-18T10:55:06.541Z,71.78
2023-02-18T10:57:34.009Z,71.87
2023-02-18T11:00:25.172Z,71.72
2023-02-18T11:03:18.471Z,71.86
2023-02-18T11:06:07.227Z,72.07
2023-02-18T11:08:44.002Z,71.82
2023-02-18T11:11:23.599Z,71.84
2023-02-18T11:13:57.387Z,71.78
2023-02-18T11:16:37.754Z,71.71
2023-02-18T11:19:04.887Z,71.95
2023-02-18T11:21:38.757Z,71.82
2023-02-18T11:24:16.690Z,71.61
2023-02-18T11:26:46.154Z,71.68
2023-02-18T11:29:24.547Z,71.42
2023-02-18T11:31:55.823Z,71.41
2023-02-18T11:34:34.084Z,71.36
2023-02-18T11:37:21.869Z,71.68
2023-02-18T11:39:53.383Z,71.43
2023-02-18T11:42:25.164Z,71.57
2023-02-18T11:44:55.782Z,71.65
2023-02-18T11:47:28.371Z,71.55
2023-02-18T11:50:14.747Z,71.56
2023-02-18T11:52:47.634Z,71.41
2023-02-18T11:55:18.404Z,71.59
2023-02-18T11:57:50.505Z,71.53
2023-02-18T12:00:35.613Z,71.36
2023-02-18T12:03:13.786Z,71.19
2023-02-18T12:05:42.107Z,71.32
2023-02-18T12:08:25.734Z,71.37
2023-02-18T12:11:01.568Z,71.18
2023-02-18T12:13:39.554Z,71.32
2023-02-18T12:16:32.312Z,71.27
2023-02-18T12:19:37.067Z,71.33
2023-02-18T12:22:38.765Z,71.18
2023-02-18T12:25:40.293Z,71.16
2023-02-18T12:28:51.313Z,71.10
2023-02-18T12:31:46.392Z,71.27
2023-02-18T12:34:34.812Z,70.94
2023-02-18T12:37:30.599Z,70.82
2023-02-18T12:40:18.997Z,71.03
2023-02-18T12:43:39.057Z,71.05
2023-02-18T12:46:22.424Z,71.06
2023-02-18T12:49:18.967Z,70.96
2023-02-18T12:52:18.846Z,70.98
2023-02-18T12:55:42.183Z,71.06
2023-02-18T12:58:45.332Z,70.90
2023-02-18T13:01:42.101Z,70.91
2023-02-18T13:04:36.635Z,70.79
2023-02-18T13:07:32.903Z,70.89
2023-02-18T13:10:37.992Z,70.91
2023-02-18T13:13:17.541Z,70.94
2023-02-18T13:16:04.346Z,71.03
2023-02-18T13:18:38.014Z,71.08
2023-02-18T13:21:07.929Z,70.89
2023-02-18T13:23:52.416Z,70.91
2023-02-18T13:26:21.365Z,71.02
2023-02-18T13:29:32.660Z,71.03
2023-02-18T13:32:25.048Z,71.04
2023-02-18T13:35:04.617Z,71.05
2023-02-18T13:38:17.343Z,70.83
2023-02-18T13:40:44.484Z,70.97
2023-02-18T13:43:35.239Z,70.86
2023-02-18T13:46:08.938Z,70.90
2023-02-18T13:48:44.704Z,70.75
2023-02-18T13:51:34.173Z,71.09
2023-02-18T13:54:09.708Z,71.03
2023-02-18T13:56:43.537Z,70.88
2023-02-18T13:59:21.895Z,70.55
2023-02-18T14:01:51.173Z,70.83
2023-02-18T14:04:41.693Z,70.87
2023-02-18T14:07:33.370Z,70.89
2023-02-18T14:10:22.700Z,71.02
2023-02-18T14:12:58.852Z,70.98
2023-02-18T14:15:25.626Z,70.83
2023-02-18T14:18:13.672Z,70.81
2023-02-18T14:20:40.429Z,71.08
2023-02-18T14:23:38.326Z,71.02
2023-02-18T14:26:12.286Z,70.77
2023-02-18T14:28:47.139Z,70.94
2023-02-18T14:31:14.263Z,70.93
2023-02-18T14:33:51.532Z,70.69
2023-02-18T14:36:36.759Z,70.78
2023-02-18T14:39:45.486Z,70.86
2023-02-18T14:43:08.148Z,70.82
2023-02-18T14:45:59.150Z,70.85
2023-02-18T14:49:11.204Z,70.86
2023-02-18T14:51:42.035Z,70.86
2023-02-18T14:54:16.221Z,70.75
2023-02-18T14:56:59.348Z,70.53
2023-02-18T14:59:30.475Z,70.58
2023-02-18T15:01:57.855Z,70.46
2023-02-18T15:04:26.497Z,70.71
2023-02-18T15:07:02.220Z,70.39
2023-02-18T15:09:29.642Z,70.45
2023-02-18T15:12:06.660Z,70.35
2023-02-18T15:14:42.478Z,70.52
2023-02-18T15:17:19.320Z,70.22
2023-02-18T15:19:55.771Z,70.28
2023-02-18T15:22:26.160Z,70.17
2023-02-18T15:24:55.792Z,70.23
2023-02-18T15:27:32.067Z,69.99
2023-02-18T15:30:22.664Z,70.24
2023-02-18T15:32:55.509Z,70.33
2023-02-18T15:35:29.117Z,70.03
2023-02-18T15:38:17.104Z,70.03
2023-02-18T15:40:48.059Z,70.07
2023-02-18T15:43:22.526Z,70.11
2023-02-18T15:48:48.951Z,69.96
2023-02-18T15:51:25.331Z,70.26
2023-02-18T15:53:57.072Z,70.09
2023-02-18T15:56:35.744Z,70.06
2023-02-18T15:59:19.619Z,69.99
2023-02-18T16:01:53.332Z,70.12
2023-02-18T16:04:32.615Z,70.12
2023-02-18T16:07:05.377Z,70.05
2023-02-18T16:09:42.711Z,70.11
2023-02-18T16:12:29.070Z,70.05
2023-02-18T16:14:58.218Z,69.95
2023-02-18T16:17:37.293Z,69.98
2023-02-18T16:20:37.684Z,69.99
2023-02-18T16:23:14.114Z,69.91
2023-02-18T16:25:48.952Z,69.91
2023-02-18T16:28:31.785Z,70.41
2023-02-18T16:30:58.731Z,70.41
2023-02-18T16:33:25.546Z,70.27
2023-02-18T16:35:52.390Z,70.32
2023-02-18T16:38:22.815Z,70.19
2023-02-18T16:40:50.725Z,70.22
2023-02-18T16:43:21.293Z,70.11
2023-02-18T16:45:59.836Z,70.05
2023-02-18T16:48:40.753Z,70.18
2023-02-18T16:51:15.290Z,70.18
2023-02-18T16:53:42.238Z,70.35
2023-02-18T16:56:25.212Z,70.04
2023-02-18T16:58:52.049Z,70.13
2023-02-18T17:01:34.432Z,69.86
2023-02-18T17:04:02.665Z,69.87
2023-02-18T17:06:30.166Z,69.93
2023-02-18T17:08:57.110Z,69.55
2023-02-18T17:11:31.962Z,69.67
2023-02-18T17:13:59.684Z,69.90
2023-02-18T17:16:27.772Z,70.00
2023-02-18T17:18:54.587Z,69.90
2023-02-18T17:21:24.701Z,69.98
2023-02-18T17:23:52.001Z,69.73
2023-02-18T17:26:22.933Z,69.91
2023-02-18T17:28:49.853Z,69.75
2023-02-18T17:31:27.909Z,69.71
2023-02-18T17:33:56.972Z,69.77
2023-02-18T17:36:23.743Z,69.72
2023-02-18T17:38:50.552Z,69.91
2023-02-18T17:41:17.604Z,69.71
2023-02-18T17:43:44.675Z,69.81
2023-02-18T17:46:14.316Z,69.64
2023-02-18T17:48:41.977Z,69.75
2023-02-18T17:51:24.598Z,69.72
2023-02-18T17:53:51.913Z,69.79
2023-02-18T17:56:18.877Z,69.75
2023-02-18T17:58:46.455Z,69.54
2023-02-18T18:01:13.421Z,69.52
2023-02-18T18:03:40.204Z,69.29
2023-02-18T18:06:17.203Z,69.28
2023-02-18T18:08:44.596Z,69.38
2023-02-18T18:11:20.776Z,69.35
2023-02-18T18:13:54.511Z,69.33
2023-02-18T18:16:21.844Z,69.41
2023-02-18T18:18:48.700Z,69.31
2023-02-18T18:21:38.755Z,69.29
2023-02-18T18:24:05.891Z,69.25
2023-02-18T18:26:32.672Z,69.33
2023-02-18T18:28:59.461Z,69.23
2023-02-18T18:31:26.311Z,69.28
2023-02-18T18:33:53.816Z,69.11
2023-02-18T18:36:23.870Z,68.93
2023-02-18T18:38:50.740Z,69.00
2023-02-18T18:41:20.773Z,68.97
2023-02-18T18:43:49.171Z,68.91
2023-02-18T18:46:15.983Z,68.98
2023-02-18T18:48:42.762Z,68.97
2023-02-18T18:51:18.995Z,68.52
2023-02-18T18:53:45.885Z,69.04
2023-02-18T18:56:13.400Z,68.89
2023-02-18T18:58:40.390Z,68.06
2023-02-18T19:01:20.233Z,68.44
2023-02-18T19:03:48.370Z,68.41
2023-02-18T19:06:16.675Z,68.45
2023-02-18T19:08:45.126Z,68.50
2023-02-18T19:11:13.147Z,68.33
2023-02-18T19:13:40.426Z,67.91
2023-02-18T19:16:25.190Z,68.33
2023-02-18T19:18:52.837Z,68.42
2023-02-18T19:21:19.622Z,68.24
2023-02-18T19:23:46.537Z,68.37
2023-02-18T19:26:15.830Z,68.27
2023-02-18T19:28:44.284Z,68.24
2023-02-18T19:31:11.840Z,68.13
2023-02-18T19:33:39.406Z,68.19
2023-02-18T19:36:11.332Z,68.28
2023-02-18T19:38:38.609Z,68.35
2023-02-18T19:41:14.597Z,68.26
2023-02-18T19:43:42.706Z,68.44
2023-02-18T19:46:15.201Z,68.23
2023-02-18T19:48:42.451Z,68.45
2023-02-18T19:51:10.038Z,68.13
2023-02-18T19:53:37.203Z,68.44
2023-02-18T19:56:07.799Z,68.66
2023-02-18T19:58:35.456Z,68.62
2023-02-18T20:01:02.424Z,68.71
2023-02-18T20:03:29.448Z,68.74
2023-02-18T20:05:56.222Z,68.62
2023-02-18T20:08:23.012Z,68.83
2023-02-18T20:10:59.801Z,68.96
2023-02-18T20:13:27.106Z,68.95
2023-02-18T20:15:54.065Z,69.12
2023-02-18T20:18:20.891Z,69.02
2023-02-18T20:20:49.216Z,68.96
2023-02-18T20:23:16.128Z,69.12
2023-02-18T20:25:42.896Z,69.07
2023-02-18T20:28:09.655Z,69.33
2023-02-18T20:30:36.503Z,69.26
2023-02-18T20:33:03.435Z,69.38
2023-02-18T20:35:30.202Z,69.26
2023-02-18T20:37:56.971Z,69.52
2023-02-18T20:40:23.753Z,69.42
2023-02-18T20:42:50.532Z,69.50
2023-02-18T20:45:17.987Z,69.49
2023-02-18T20:47:45.017Z,69.42
2023-02-18T20:50:11.834Z,69.39
2023-02-18T20:52:38.618Z,69.49
2023-02-18T20:55:05.703Z,69.35
2023-02-18T20:57:32.474Z,69.41
2023-02-18T20:59:59.591Z,69.53
2023-02-18T21:02:26.990Z,69.30
2023-02-18T21:04:53.798Z,69.38
2023-02-18T21:07:22.198Z,69.29
2023-02-18T21:09:49.003Z,69.34
2023-02-18T21:12:15.753Z,69.49
2023-02-18T21:14:42.529Z,69.32
2023-02-18T21:17:09.703Z,69.28
2023-02-18T21:19:36.520Z,69.38
2023-02-18T21:22:03.331Z,69.53
2023-02-18T21:24:31.825Z,70.00
2023-02-18T21:26:58.616Z,69.62
2023-02-18T21:29:26.690Z,69.67
2023-02-18T21:31:53.497Z,69.79
2023-02-18T21:34:21.004Z,69.85
2023-02-18T21:36:48.142Z,69.72
2023-02-18T21:39:14.896Z,69.88
2023-02-18T21:41:41.692Z,69.51
2023-02-18T21:44:09.624Z,69.87
2023-02-18T21:46:37.046Z,70.15
2023-02-18T21:49:12.283Z,69.95
2023-02-18T21:52:02.138Z,69.77
2023-02-18T21:54:55.240Z,69.96
2023-02-18T21:57:22.115Z,69.95
2023-02-18T21:59:49.084Z,70.05
2023-02-18T22:02:23.175Z,69.71
2023-02-18T22:04:50.614Z,69.83
2023-02-18T22:07:19.679Z,69.84
2023-02-18T22:09:48.625Z,69.96
2023-02-18T22:12:16.847Z,69.80
2023-02-18T22:14:44.178Z,69.86
2023-02-18T22:17:11.580Z,69.91
2023-02-18T22:19:38.441Z,70.17
2023-02-18T22:22:05.597Z,69.83
2023-02-18T22:24:32.506Z,69.94
2023-02-18T22:27:01.399Z,70.01
2023-02-18T22:29:30.291Z,70.03
2023-02-18T22:31:57.300Z,70.00
2023-02-18T22:34:24.426Z,70.23
2023-02-18T22:36:51.202Z,70.11
2023-02-18T22:39:18.173Z,69.94
2023-02-18T22:41:44.969Z,70.07
2023-02-18T22:44:15.240Z,70.39
2023-02-18T22:46:42.302Z,70.13
2023-02-18T22:49:09.167Z,70.12
2023-02-18T22:51:39.291Z,70.19
2023-02-18T22:54:10.825Z,70.18
2023-02-18T22:56:37.608Z,70.32
2023-02-18T22:59:04.587Z,70.18
2023-02-18T23:01:37.648Z,70.03
2023-02-18T23:04:09.861Z,70.16
2023-02-18T23:06:38.909Z,70.20
2023-02-18T23:09:07.647Z,70.04
2023-02-18T23:11:34.669Z,69.87
2023-02-18T23:14:19.276Z,70.28
2023-02-18T23:17:15.162Z,70.51
2023-02-18T23:19:53.900Z,70.62
2023-02-18T23:22:37.735Z,70.26
2023-02-18T23:25:05.708Z,70.48
2023-02-18T23:27:32.460Z,70.46
2023-02-18T23:29:59.257Z,70.25
2023-02-18T23:32:27.716Z,70.47
2023-02-18T23:34:54.517Z,70.27
2023-02-18T23:37:43.602Z,70.16
2023-02-18T23:40:13.555Z,70.19
2023-02-18T23:42:40.307Z,70.27
2023-02-18T23:45:07.481Z,70.28
2023-02-18T23:47:34.267Z,69.95
2023-02-18T23:50:01.033Z,69.93
2023-02-18T23:52:27.809Z,70.19
2023-02-18T23:54:54.549Z,69.98
2023-02-18T23:57:21.297Z,70.07
2023-02-18T23:59:48.131Z,69.97
